Time;durP1;ratioP1;P1;durP2;ratioP2;P2;SDS_P1;SDS_P2;PMS_P1;PMS_P2;Temp;Humidity;BMP_temperature;BMP_pressure;BME280_temperature;BME280_humidity;BME280_pressure;Samples;Min_cycle;Max_cycle;Signal;HPM_P1;HPM_P2
2022/11/28 00:03:30;;;;;;;1.60;0.95;;;;;;;16.24;87.91;100734.53;20784594;28;20076;-86
2022/11/28 00:13:32;;;;;;;1.60;1.00;;;;;;;16.24;87.86;100731.84;20800115;28;20048;-86
2022/11/28 00:23:33;;;;;;;1.60;1.00;;;;;;;16.23;87.80;100708.66;20788360;28;20057;-86
2022/11/28 00:33:35;;;;;;;1.48;0.85;;;;;;;16.24;87.74;100718.41;20786905;28;20057;-86
2022/11/28 00:43:36;;;;;;;1.65;0.90;;;;;;;16.04;87.59;100653.84;20787025;28;20426;-86
2022/11/28 00:53:41;;;;;;;1.90;1.00;;;;;;;16.16;87.68;100670.75;20795409;28;20436;-86
2022/11/28 01:03:43;;;;;;;1.08;0.75;;;;;;;16.23;87.62;100660.31;20802085;28;20107;-86
2022/11/28 01:13:45;;;;;;;1.33;1.10;;;;;;;16.23;87.76;100652.25;20791483;28;20686;-86
2022/11/28 01:23:47;;;;;;;0.90;0.70;;;;;;;16.14;87.67;100637.78;20786944;28;20045;-86
2022/11/28 01:33:49;;;;;;;0.82;0.77;;;;;;;16.22;87.61;100639.81;20800547;28;20437;-86
2022/11/28 01:44:12;;;;;;;1.38;1.10;;;;;;;16.23;87.41;100625.38;20781760;28;20157;-86
2022/11/28 01:54:15;;;;;;;1.02;0.93;;;;;;;16.23;87.48;100609.28;20797855;28;20049;-87
2022/11/28 02:04:17;;;;;;;0.65;0.65;;;;;;;16.16;87.38;100574.06;20781535;28;20148;-86
2022/11/28 02:14:55;;;;;;;1.88;0.90;;;;;;;16.22;87.44;100586.09;20788572;28;20148;-86
2022/11/28 02:25:27;;;;;;;1.55;0.80;;;;;;;16.23;87.29;100582.41;20794315;28;20045;-86
2022/11/28 02:35:41;;;;;;;1.38;1.15;;;;;;;16.22;87.45;100578.03;20794739;28;20517;-86
2022/11/28 02:45:55;;;;;;;0.95;0.88;;;;;;;16.21;87.38;100576.31;20775954;28;20061;-86
2022/11/28 02:55:57;;;;;;;1.00;0.90;;;;;;;16.22;87.22;100578.03;20776182;28;20069;-86
2022/11/28 03:06:44;;;;;;;0.90;0.80;;;;;;;16.21;87.27;100562.91;20755273;28;20053;-85
2022/11/28 03:16:53;;;;;;;1.15;0.68;;;;;;;15.95;87.10;100504.28;20789181;28;20472;-86
2022/11/28 03:27:02;;;;;;;1.00;0.75;;;;;;;16.15;87.22;100539.25;20790975;28;20053;-86
2022/11/28 03:37:07;;;;;;;1.10;0.90;;;;;;;16.05;87.35;100515.03;20725343;28;20061;-86
2022/11/28 03:47:09;;;;;;;0.82;0.70;;;;;;;16.21;87.16;100541.41;20694563;28;20050;-86
2022/11/28 03:57:20;;;;;;;0.98;0.90;;;;;;;16.03;87.10;100507.13;20711771;28;20103;-86
2022/11/28 04:07:42;;;;;;;1.63;0.90;;;;;;;16.20;86.95;100534.34;20711859;28;20108;-86
2022/11/28 04:18:06;;;;;;;0.68;0.68;;;;;;;16.21;87.11;100544.97;20710959;28;20041;-86
2022/11/28 04:28:13;;;;;;;0.80;0.80;;;;;;;16.21;87.06;100546.78;20694192;28;20050;-86
2022/11/28 04:38:15;;;;;;;1.13;0.88;;;;;;;16.21;86.94;100536.03;20753790;28;20409;-86
2022/11/28 04:48:17;;;;;;;1.08;0.93;;;;;;;16.05;86.87;100501.59;20778524;28;20556;-87
2022/11/28 04:58:31;;;;;;;0.68;0.63;;;;;;;16.09;86.99;100511.09;20785717;28;20050;-86
2022/11/28 05:08:33;;;;;;;0.82;0.70;;;;;;;16.21;86.84;100530.66;20790065;28;20387;-86
2022/11/28 05:18:34;;;;;;;1.27;0.70;;;;;;;16.20;87.02;100534.34;20800325;28;20107;-87
2022/11/28 05:28:36;;;;;;;0.70;0.65;;;;;;;16.20;86.90;100545.94;20795502;28;20045;-86
2022/11/28 05:38:37;;;;;;;1.13;0.70;;;;;;;16.20;86.91;100550.44;20806428;28;20061;-87
2022/11/28 05:48:39;;;;;;;0.60;0.60;;;;;;;16.25;87.18;100553.59;20761891;28;20049;-88
2022/11/28 05:58:41;;;;;;;1.55;1.10;;;;;;;16.30;86.79;100556.72;20769063;28;20045;-93
2022/11/28 06:08:43;;;;;;;4.25;1.30;;;;;;;16.37;91.67;100541.78;20766179;28;20052;-95
2022/11/28 06:18:45;;;;;;;5.35;1.30;;;;;;;16.51;91.73;100540.53;20745797;28;20072;-94
2022/11/28 06:28:47;;;;;;;7.13;1.50;;;;;;;16.51;90.34;100551.28;20756665;28;20052;-86
2022/11/28 06:38:48;;;;;;;3.25;1.50;;;;;;;16.58;89.50;100570.41;20771343;28;20055;-95
2022/11/28 06:48:51;;;;;;;3.70;1.58;;;;;;;16.58;89.29;100589.22;20789517;28;20099;-91
2022/11/28 06:58:54;;;;;;;2.15;1.25;;;;;;;16.50;89.30;100584.53;20758574;28;20053;-85
2022/11/28 07:08:57;;;;;;;3.10;1.20;;;;;;;16.47;89.66;100589.34;20740988;28;20061;-85
2022/11/28 07:18:58;;;;;;;4.20;1.63;;;;;;;16.44;89.59;100598.50;20745242;28;20049;-84
2022/11/28 07:29:00;;;;;;;1.30;1.17;;;;;;;16.43;89.66;100609.41;20755057;28;20064;-84
2022/11/28 07:39:03;;;;;;;1.90;1.33;;;;;;;16.31;89.67;100585.28;20753952;28;20110;-85
2022/11/28 07:49:05;;;;;;;2.17;1.10;;;;;;;16.37;89.49;100606.25;20776052;28;20460;-84
2022/11/28 07:59:06;;;;;;;3.35;1.50;;;;;;;16.37;89.49;100610.78;20792857;28;20054;-84
2022/11/28 08:09:08;;;;;;;1.77;1.20;;;;;;;16.01;89.43;100568.16;20776556;28;20041;-84
2022/11/28 08:19:09;;;;;;;1.17;1.00;;;;;;;16.36;89.35;100630.56;20795183;28;20144;-84
2022/11/28 08:29:11;;;;;;;1.50;1.10;;;;;;;16.35;89.32;100636.91;20807983;28;20051;-85
2022/11/28 08:39:13;;;;;;;2.00;1.10;;;;;;;16.29;89.28;100626.72;20807741;28;20046;-84
2022/11/28 08:49:29;;;;;;;1.95;0.85;;;;;;;16.33;89.19;100645.09;20792436;28;20168;-84
2022/11/28 08:59:31;;;;;;;2.50;1.20;;;;;;;16.24;89.13;100627.09;20787622;28;20128;-84
2022/11/28 09:09:33;;;;;;;0.82;0.82;;;;;;;16.34;89.15;100646.78;20805589;28;20047;-84
2022/11/28 09:19:34;;;;;;;1.88;1.00;;;;;;;16.34;89.14;100645.97;20804908;28;20046;-84
2022/11/28 09:29:36;;;;;;;1.08;0.90;;;;;;;16.33;88.96;100655.84;20784680;28;20107;-84
2022/11/28 09:39:38;;;;;;;1.25;0.75;;;;;;;16.34;89.04;100670.97;20785544;28;20414;-84
2022/11/28 09:50:14;;;;;;;1.38;0.85;;;;;;;16.27;89.06;100668.97;20802907;28;20585;-84
2022/11/28 10:00:21;;;;;;;1.10;0.80;;;;;;;15.74;88.79;100584.78;20797145;28;20064;-84
2022/11/28 10:11:03;;;;;;;1.85;0.75;;;;;;;16.33;88.90;100685.41;20783088;28;20051;-84
2022/11/28 10:21:30;;;;;;;1.35;0.70;;;;;;;16.33;88.82;100676.50;20727544;28;20089;-84
2022/11/28 10:31:41;;;;;;;1.27;0.70;;;;;;;16.33;88.78;100688.06;20754207;28;20061;-84
2022/11/28 10:42:10;;;;;;;1.42;0.80;;;;;;;16.33;88.72;100684.56;20747101;28;20053;-86
2022/11/28 10:52:24;;;;;;;0.85;0.70;;;;;;;16.33;88.57;100690.75;20726834;28;20041;-86
2022/11/28 11:02:45;;;;;;;1.10;0.73;;;;;;;16.33;88.57;100682.69;20737025;28;20049;-86
2022/11/28 11:12:49;;;;;;;0.50;0.50;;;;;;;16.22;88.44;100666.66;20717391;28;20087;-83
2022/11/28 11:23:12;;;;;;;0.80;0.60;;;;;;;16.02;88.63;100618.19;20754735;28;20041;-83
2022/11/28 11:33:15;;;;;;;0.88;0.70;;;;;;;16.26;88.55;100664.56;20750439;28;20045;-84
2022/11/28 11:43:23;;;;;;;1.52;0.60;;;;;;;16.31;88.42;100665.88;20753344;28;20049;-84
2022/11/28 11:53:25;;;;;;;0.77;0.60;;;;;;;16.33;88.46;100680.03;20753924;28;20049;-83
2022/11/28 12:03:40;;;;;;;0.52;0.52;;;;;;;16.19;88.35;100666.94;20741799;28;20060;-83
2022/11/28 12:13:42;;;;;;;0.93;0.65;;;;;;;16.25;88.36;100679.84;20733256;28;20041;-84
2022/11/28 12:23:56;;;;;;;0.77;0.50;;;;;;;16.31;88.35;100687.34;20721756;28;20049;-85
2022/11/28 12:34:09;;;;;;;0.70;0.50;;;;;;;16.18;88.30;100678.66;20747745;28;20053;-86
2022/11/28 12:44:23;;;;;;;1.13;0.95;;;;;;;16.33;88.44;100704.19;20764577;28;20046;-86
2022/11/28 12:54:39;;;;;;;0.60;0.50;;;;;;;15.92;88.45;100638.78;20761303;28;20088;-93
2022/11/28 13:05:05;;;;;;;0.57;0.50;;;;;;;16.31;88.42;100714.22;20741706;28;20053;-85
2022/11/28 13:15:35;;;;;;;0.77;0.60;;;;;;;16.34;88.16;100721.19;20774323;28;20049;-83
2022/11/28 13:25:47;;;;;;;0.63;0.60;;;;;;;16.37;88.62;100711.03;20776707;28;20136;-84
2022/11/28 13:35:50;;;;;;;1.10;0.75;;;;;;;16.33;88.89;100706.88;20755236;28;20482;-85
2022/11/28 13:45:52;;;;;;;0.98;0.65;;;;;;;16.38;90.08;100726.19;20775844;28;20045;-84
2022/11/28 13:56:05;;;;;;;1.23;0.60;;;;;;;16.38;91.02;100733.38;20754919;28;20056;-84
2022/11/28 14:06:09;;;;;;;1.23;0.70;;;;;;;16.35;92.01;100731.81;20764116;28;20509;-85
2022/11/28 14:16:33;;;;;;;0.77;0.57;;;;;;;16.33;92.65;100749.88;20745963;28;20064;-84
2022/11/28 14:26:37;;;;;;;0.80;0.77;;;;;;;16.31;93.38;100751.84;20704494;28;20053;-84
2022/11/28 14:36:42;;;;;;;1.20;0.70;;;;;;;16.22;93.51;100752.63;20738468;28;20053;-84
2022/11/28 14:47:14;;;;;;;0.50;0.50;;;;;;;16.30;94.29;100771.63;20732424;28;20127;-85
2022/11/28 14:57:19;;;;;;;0.60;0.60;;;;;;;15.87;95.06;100705.34;20699063;28;20053;-85
2022/11/28 15:08:00;;;;;;;1.02;0.60;;;;;;;16.29;95.69;100777.97;20679198;28;20159;-85
2022/11/28 15:18:03;;;;;;;0.65;0.60;;;;;;;16.27;96.02;100782.63;20734862;28;20498;-85
2022/11/28 15:28:13;;;;;;;0.53;0.53;;;;;;;16.21;96.93;100772.41;20737617;28;20053;-84
2022/11/28 15:38:16;;;;;;;0.60;0.60;;;;;;;16.27;97.31;100795.22;20745084;28;20060;-84
2022/11/28 15:48:27;;;;;;;0.65;0.57;;;;;;;16.28;97.71;100788.88;20749145;28;20558;-84
2022/11/28 15:58:29;;;;;;;0.40;0.40;;;;;;;16.27;97.99;100798.75;20750287;28;20115;-84
2022/11/28 16:08:39;;;;;;;0.50;0.50;;;;;;;16.27;98.12;100806.81;20745072;28;20050;-84
2022/11/28 16:18:52;;;;;;;0.60;0.50;;;;;;;16.19;97.81;100803.91;20732221;28;20410;-84
2022/11/28 16:29:00;;;;;;;0.43;0.43;;;;;;;16.27;98.39;100825.59;20741423;28;20571;-85
2022/11/28 16:39:13;;;;;;;0.60;0.60;;;;;;;15.98;99.46;100793.97;20722456;28;20061;-87
2022/11/28 16:49:35;;;;;;;1.52;0.65;;;;;;;16.25;98.48;100843.69;20752825;28;20128;-86
2022/11/28 16:59:37;;;;;;;0.50;0.50;;;;;;;16.12;99.75;100821.50;20743186;28;20741;-83
2022/11/28 17:09:42;;;;;;;0.55;0.55;;;;;;;16.15;98.94;100834.69;20703478;28;20061;-84
2022/11/28 17:19:44;;;;;;;0.90;0.60;;;;;;;16.04;99.96;100831.06;20722161;28;20525;-85
2022/11/28 17:29:46;;;;;;;0.68;0.60;;;;;;;16.04;100.00;100838.25;20728062;28;20057;-85
2022/11/28 17:50:10;;;;;;;0.70;0.60;;;;;;;16.25;100.00;100889.34;20715461;28;20152;-86
2022/11/28 18:00:13;;;;;;;1.05;0.60;;;;;;;16.26;100.00;100887.53;20706303;28;20050;-85
2022/11/28 18:10:16;;;;;;;0.60;0.60;;;;;;;16.24;100.00;100882.28;20716548;28;20084;-86
2022/11/28 18:20:18;;;;;;;0.70;0.70;;;;;;;16.24;100.00;100895.69;20740026;28;20060;-85
2022/11/28 18:30:21;;;;;;;0.85;0.68;;;;;;;16.23;100.00;100894.00;20738279;28;20509;-86
2022/11/28 18:40:23;;;;;;;0.75;0.60;;;;;;;16.23;100.00;100900.25;20722583;28;20112;-83
2022/11/28 18:50:26;;;;;;;0.65;0.57;;;;;;;16.18;100.00;100896.22;20728321;28;20496;-84
2022/11/28 19:00:28;;;;;;;0.55;0.50;;;;;;;15.86;100.00;100875.47;21084546;22;20048;-92
2022/11/28 19:10:30;;;;;;;0.90;0.80;;;;;;;16.23;100.00;100918.19;20907206;28;20045;-86
2022/11/28 19:20:32;;;;;;;1.17;0.90;;;;;;;16.25;100.00;100924.28;20952747;28;20044;-86
2022/11/28 19:30:35;;;;;;;0.85;0.82;;;;;;;16.25;100.00;100935.03;20953822;28;20041;-85
2022/11/28 19:40:36;;;;;;;1.70;0.68;;;;;;;15.90;100.00;100893.06;20943294;28;20068;-86
2022/11/28 19:50:38;;;;;;;0.88;0.73;;;;;;;16.24;100.00;100949.44;20935868;28;20048;-85
2022/11/28 20:00:40;;;;;;;1.02;0.80;;;;;;;16.23;100.00;100953.09;20965292;28;20075;-86
2022/11/28 20:10:43;;;;;;;0.80;0.80;;;;;;;16.23;100.00;100963.84;20925194;28;20532;-86
2022/11/28 20:20:45;;;;;;;0.60;0.55;;;;;;;16.23;100.00;100974.59;20937041;28;20048;-85
2022/11/28 20:30:47;;;;;;;0.98;0.77;;;;;;;16.22;100.00;100972.88;20944814;28;20127;-85
2022/11/28 20:40:49;;;;;;;1.10;0.90;;;;;;;16.21;100.00;100985.47;20956802;28;20052;-85
2022/11/28 20:50:50;;;;;;;0.90;0.80;;;;;;;16.21;100.00;100988.16;20948403;28;20611;-85
2022/11/28 21:00:52;;;;;;;1.45;0.80;;;;;;;16.14;100.00;100991.44;20939438;28;20057;-83
2022/11/28 21:10:54;;;;;;;1.20;0.80;;;;;;;16.22;100.00;101005.09;20951671;28;20059;-86
2022/11/28 21:20:55;;;;;;;1.48;0.90;;;;;;;15.88;100.00;100959.44;20967916;28;20763;-86
2022/11/28 21:30:56;;;;;;;0.85;0.80;;;;;;;16.22;100.00;101010.47;20947860;28;20059;-86
2022/11/28 21:40:59;;;;;;;1.23;0.70;;;;;;;16.22;100.00;101011.34;20953041;28;20055;-86
2022/11/28 21:51:02;;;;;;;0.93;0.70;;;;;;;16.22;100.00;101010.47;20899272;28;20136;-86
2022/11/28 22:01:06;;;;;;;1.00;0.93;;;;;;;15.94;100.00;100969.72;20926641;28;20439;-86
2022/11/28 22:11:10;;;;;;;0.70;0.65;;;;;;;16.21;100.00;101016.84;20945051;28;20071;-85
2022/11/28 22:21:15;;;;;;;1.10;0.82;;;;;;;16.22;100.00;101034.66;20912644;28;20049;-85
2022/11/28 22:31:36;;;;;;;1.13;0.95;;;;;;;16.22;100.00;101031.97;20937437;28;20056;-85
2022/11/28 22:41:38;;;;;;;0.90;0.80;;;;;;;16.21;100.00;101035.63;20933473;28;20501;-86
2022/11/28 22:51:40;;;;;;;1.02;0.80;;;;;;;16.21;100.00;101030.25;20934834;28;20062;-86
2022/11/28 23:01:42;;;;;;;1.77;1.00;;;;;;;16.21;100.00;101041.88;20925675;28;20114;-86
2022/11/28 23:11:44;;;;;;;1.25;1.05;;;;;;;16.20;100.00;101050.91;20954103;28;20049;-85
2022/11/28 23:21:48;;;;;;;0.90;0.90;;;;;;;16.20;100.00;101045.53;20955261;28;20106;-86
2022/11/28 23:31:52;;;;;;;;;;;;;;;16.22;100.00;101053.47;20943271;28;20052;-85
2022/11/28 23:41:54;;;;;;;1.13;0.98;;;;;;;16.20;100.00;101058.09;20954294;28;19920;-85
2022/11/28 23:51:55;;;;;;;1.08;0.95;;;;;;;16.02;100.00;101034.41;20955633;28;20056;-86
